Grattan, Minnesota
Current Conditions -  °F | °C
As of 6:33 PM on Saturday 25 Oct 2014 (Local Time) from KFOZ Reporting Station
Clear Clear  
Wind Chill: 52°   Ceiling: Unl
Heat Index: 52°   Visibility: 10mi
Dew Point: 25°   Wind: 6mph
Humidity: 35%   Direction: 270°W
Pressure: 29.99"   Gusts: NA
Location:  47.8312°N, 94.1459°W
Report Text: KFOZ 252333Z AUTO 27005KT 10SM CLR 11/M04 A2999 RMK AO2
Loading
Personal Weather Stations






























Interactive Weather Map
Tropical Storm Tracking
New forecast layout! Learn more

10-Day Weather Forecast

Advertisements
Track Severe Weather on mobile